sensor_id;sensor_type;location;lat;lon;timestamp;temperature;humidity
10316;DHT22;5203;48.976;8.306;2023-02-07T00:02:20;2.20;90.70
10316;DHT22;5203;48.976;8.306;2023-02-07T00:04:45;2.10;90.60
10316;DHT22;5203;48.976;8.306;2023-02-07T00:07:11;2.20;90.50
10316;DHT22;5203;48.976;8.306;2023-02-07T00:09:37;2.20;90.00
10316;DHT22;5203;48.976;8.306;2023-02-07T00:12:04;2.10;90.40
10316;DHT22;5203;48.976;8.306;2023-02-07T00:14:29;2.00;90.70
10316;DHT22;5203;48.976;8.306;2023-02-07T00:16:55;2.00;92.40
10316;DHT22;5203;48.976;8.306;2023-02-07T00:19:20;2.10;93.10
10316;DHT22;5203;48.976;8.306;2023-02-07T00:21:46;2.10;91.70
10316;DHT22;5203;48.976;8.306;2023-02-07T00:24:12;2.20;92.10
10316;DHT22;5203;48.976;8.306;2023-02-07T00:26:38;2.10;91.30
10316;DHT22;5203;48.976;8.306;2023-02-07T00:29:04;2.20;91.20
10316;DHT22;5203;48.976;8.306;2023-02-07T00:31:31;2.10;90.70
10316;DHT22;5203;48.976;8.306;2023-02-07T00:34:01;2.10;91.10
10316;DHT22;5203;48.976;8.306;2023-02-07T00:36:28;1.90;92.30
10316;DHT22;5203;48.976;8.306;2023-02-07T00:38:56;1.90;93.00
10316;DHT22;5203;48.976;8.306;2023-02-07T00:41:22;1.90;93.50
10316;DHT22;5203;48.976;8.306;2023-02-07T00:43:48;1.90;94.30
10316;DHT22;5203;48.976;8.306;2023-02-07T00:46:14;1.90;92.80
10316;DHT22;5203;48.976;8.306;2023-02-07T00:48:40;1.80;93.40
10316;DHT22;5203;48.976;8.306;2023-02-07T00:51:07;1.80;94.70
10316;DHT22;5203;48.976;8.306;2023-02-07T00:53:33;1.70;94.10
10316;DHT22;5203;48.976;8.306;2023-02-07T00:55:59;1.70;93.60
10316;DHT22;5203;48.976;8.306;2023-02-07T00:58:24;1.70;94.30
10316;DHT22;5203;48.976;8.306;2023-02-07T01:00:50;1.70;94.70
10316;DHT22;5203;48.976;8.306;2023-02-07T01:03:16;1.80;95.30
10316;DHT22;5203;48.976;8.306;2023-02-07T01:05:42;1.80;93.40
10316;DHT22;5203;48.976;8.306;2023-02-07T01:08:09;1.70;92.90
10316;DHT22;5203;48.976;8.306;2023-02-07T01:10:37;1.70;92.80
10316;DHT22;5203;48.976;8.306;2023-02-07T01:13:03;1.60;93.50
10316;DHT22;5203;48.976;8.306;2023-02-07T01:15:28;1.60;93.70
10316;DHT22;5203;48.976;8.306;2023-02-07T01:17:54;1.60;95.50
10316;DHT22;5203;48.976;8.306;2023-02-07T01:20:20;1.70;92.70
10316;DHT22;5203;48.976;8.306;2023-02-07T01:22:45;1.70;91.20
10316;DHT22;5203;48.976;8.306;2023-02-07T01:25:11;1.60;90.30
10316;DHT22;5203;48.976;8.306;2023-02-07T01:27:37;1.60;91.30
10316;DHT22;5203;48.976;8.306;2023-02-07T01:30:03;1.60;89.70
10316;DHT22;5203;48.976;8.306;2023-02-07T01:32:31;1.50;89.10
10316;DHT22;5203;48.976;8.306;2023-02-07T01:34:57;1.40;87.70
10316;DHT22;5203;48.976;8.306;2023-02-07T01:37:23;1.50;86.60
10316;DHT22;5203;48.976;8.306;2023-02-07T01:39:48;1.40;86.20
10316;DHT22;5203;48.976;8.306;2023-02-07T01:42:15;1.30;86.70
10316;DHT22;5203;48.976;8.306;2023-02-07T01:47:10;1.20;83.20
10316;DHT22;5203;48.976;8.306;2023-02-07T01:49:36;1.20;82.10
10316;DHT22;5203;48.976;8.306;2023-02-07T01:52:14;1.20;82.10
10316;DHT22;5203;48.976;8.306;2023-02-07T01:54:46;1.20;81.00
10316;DHT22;5203;48.976;8.306;2023-02-07T01:57:14;1.20;81.20
10316;DHT22;5203;48.976;8.306;2023-02-07T01:59:41;1.20;79.10
10316;DHT22;5203;48.976;8.306;2023-02-07T02:02:10;1.20;78.30
10316;DHT22;5203;48.976;8.306;2023-02-07T02:04:37;1.20;78.20
10316;DHT22;5203;48.976;8.306;2023-02-07T02:07:06;1.10;79.90
10316;DHT22;5203;48.976;8.306;2023-02-07T02:09:32;1.10;78.50
10316;DHT22;5203;48.976;8.306;2023-02-07T02:17:23;1.00;76.80
10316;DHT22;5203;48.976;8.306;2023-02-07T02:20:44;1.00;77.40
10316;DHT22;5203;48.976;8.306;2023-02-07T02:31:36;0.80;78.60
10316;DHT22;5203;48.976;8.306;2023-02-07T02:42:04;0.80;78.40
10316;DHT22;5203;48.976;8.306;2023-02-07T02:47:16;0.80;80.20
10316;DHT22;5203;48.976;8.306;2023-02-07T02:49:43;0.70;78.90
10316;DHT22;5203;48.976;8.306;2023-02-07T02:52:09;0.80;79.90
10316;DHT22;5203;48.976;8.306;2023-02-07T02:54:37;0.70;79.20
10316;DHT22;5203;48.976;8.306;2023-02-07T03:06:03;0.60;81.90
10316;DHT22;5203;48.976;8.306;2023-02-07T03:08:44;0.60;83.00
10316;DHT22;5203;48.976;8.306;2023-02-07T03:11:20;0.60;82.60
10316;DHT22;5203;48.976;8.306;2023-02-07T03:13:59;0.60;83.10
10316;DHT22;5203;48.976;8.306;2023-02-07T03:21:46;0.60;82.50
10316;DHT22;5203;48.976;8.306;2023-02-07T03:24:18;0.50;82.40
10316;DHT22;5203;48.976;8.306;2023-02-07T03:26:47;0.40;82.60
10316;DHT22;5203;48.976;8.306;2023-02-07T03:29:16;0.40;83.60
10316;DHT22;5203;48.976;8.306;2023-02-07T03:31:44;0.50;86.50
10316;DHT22;5203;48.976;8.306;2023-02-07T03:34:16;0.60;82.00
10316;DHT22;5203;48.976;8.306;2023-02-07T03:37:54;0.50;81.00
10316;DHT22;5203;48.976;8.306;2023-02-07T03:39:44;0.40;81.10
10316;DHT22;5203;48.976;8.306;2023-02-07T03:44:56;0.40;81.10
10316;DHT22;5203;48.976;8.306;2023-02-07T03:47:24;0.40;82.10
10316;DHT22;5203;48.976;8.306;2023-02-07T03:49:50;0.40;80.70
10316;DHT22;5203;48.976;8.306;2023-02-07T03:52:15;0.30;80.30
10316;DHT22;5203;48.976;8.306;2023-02-07T03:54:41;0.30;82.00
10316;DHT22;5203;48.976;8.306;2023-02-07T03:57:07;0.30;80.60
10316;DHT22;5203;48.976;8.306;2023-02-07T03:59:32;0.30;80.30
10316;DHT22;5203;48.976;8.306;2023-02-07T04:01:58;0.30;79.70
10316;DHT22;5203;48.976;8.306;2023-02-07T04:04:24;0.30;79.80
10316;DHT22;5203;48.976;8.306;2023-02-07T04:06:49;0.30;79.20
10316;DHT22;5203;48.976;8.306;2023-02-07T04:09:15;0.30;79.10
10316;DHT22;5203;48.976;8.306;2023-02-07T04:11:41;0.30;79.30
10316;DHT22;5203;48.976;8.306;2023-02-07T04:14:06;0.20;79.10
10316;DHT22;5203;48.976;8.306;2023-02-07T04:16:32;0.20;78.90
10316;DHT22;5203;48.976;8.306;2023-02-07T04:18:57;0.20;79.30
10316;DHT22;5203;48.976;8.306;2023-02-07T04:21:23;0.10;78.80
10316;DHT22;5203;48.976;8.306;2023-02-07T04:23:49;0.10;81.70
10316;DHT22;5203;48.976;8.306;2023-02-07T04:26:15;0.10;79.00
10316;DHT22;5203;48.976;8.306;2023-02-07T04:28:40;0.20;81.50
10316;DHT22;5203;48.976;8.306;2023-02-07T04:31:06;0.20;79.00
10316;DHT22;5203;48.976;8.306;2023-02-07T04:33:32;0.10;79.60
10316;DHT22;5203;48.976;8.306;2023-02-07T04:36:00;0.10;79.00
10316;DHT22;5203;48.976;8.306;2023-02-07T04:38:26;0.00;80.50
10316;DHT22;5203;48.976;8.306;2023-02-07T04:40:56;0.10;81.20
10316;DHT22;5203;48.976;8.306;2023-02-07T04:43:22;0.00;79.40
10316;DHT22;5203;48.976;8.306;2023-02-07T04:45:47;-0.10;79.80
10316;DHT22;5203;48.976;8.306;2023-02-07T04:48:13;-0.10;80.50
10316;DHT22;5203;48.976;8.306;2023-02-07T04:50:39;-0.10;80.20
10316;DHT22;5203;48.976;8.306;2023-02-07T04:53:04;-0.10;81.10
10316;DHT22;5203;48.976;8.306;2023-02-07T04:55:30;-0.10;81.40
10316;DHT22;5203;48.976;8.306;2023-02-07T04:57:56;-0.10;80.80
10316;DHT22;5203;48.976;8.306;2023-02-07T05:00:21;-0.10;80.70
10316;DHT22;5203;48.976;8.306;2023-02-07T05:02:47;-0.10;81.50
10316;DHT22;5203;48.976;8.306;2023-02-07T05:05:13;0.00;83.40
10316;DHT22;5203;48.976;8.306;2023-02-07T05:07:38;0.00;80.00
10316;DHT22;5203;48.976;8.306;2023-02-07T05:10:04;0.00;80.30
10316;DHT22;5203;48.976;8.306;2023-02-07T05:12:30;0.00;81.40
10316;DHT22;5203;48.976;8.306;2023-02-07T05:14:55;0.00;79.20
10316;DHT22;5203;48.976;8.306;2023-02-07T05:17:21;0.00;80.30
10316;DHT22;5203;48.976;8.306;2023-02-07T05:19:47;-0.10;81.00
10316;DHT22;5203;48.976;8.306;2023-02-07T05:22:13;0.00;83.20
10316;DHT22;5203;48.976;8.306;2023-02-07T05:24:38;0.00;80.80
10316;DHT22;5203;48.976;8.306;2023-02-07T05:27:04;0.10;83.40
10316;DHT22;5203;48.976;8.306;2023-02-07T05:29:29;-0.10;80.20
10316;DHT22;5203;48.976;8.306;2023-02-07T05:31:55;-0.10;80.50
10316;DHT22;5203;48.976;8.306;2023-02-07T05:34:39;-0.20;81.50
10316;DHT22;5203;48.976;8.306;2023-02-07T05:37:05;-0.20;82.60
10316;DHT22;5203;48.976;8.306;2023-02-07T05:39:30;-0.20;81.70
10316;DHT22;5203;48.976;8.306;2023-02-07T05:41:56;-0.20;81.30
10316;DHT22;5203;48.976;8.306;2023-02-07T05:44:22;-0.20;81.50
10316;DHT22;5203;48.976;8.306;2023-02-07T05:46:47;-0.20;80.80
10316;DHT22;5203;48.976;8.306;2023-02-07T05:49:13;-0.30;81.10
10316;DHT22;5203;48.976;8.306;2023-02-07T05:51:39;-0.30;81.80
10316;DHT22;5203;48.976;8.306;2023-02-07T05:54:04;-0.20;81.90
10316;DHT22;5203;48.976;8.306;2023-02-07T05:56:30;-0.20;80.60
10316;DHT22;5203;48.976;8.306;2023-02-07T05:58:55;-0.20;82.80
10316;DHT22;5203;48.976;8.306;2023-02-07T06:01:21;-0.20;80.60
10316;DHT22;5203;48.976;8.306;2023-02-07T06:03:47;-0.20;81.00
10316;DHT22;5203;48.976;8.306;2023-02-07T06:06:12;-0.20;81.60
10316;DHT22;5203;48.976;8.306;2023-02-07T06:08:38;-0.20;81.40
10316;DHT22;5203;48.976;8.306;2023-02-07T06:11:04;-0.30;82.20
10316;DHT22;5203;48.976;8.306;2023-02-07T06:13:29;-0.30;80.60
10316;DHT22;5203;48.976;8.306;2023-02-07T06:15:55;-0.30;81.40
10316;DHT22;5203;48.976;8.306;2023-02-07T06:18:20;-0.30;81.20
10316;DHT22;5203;48.976;8.306;2023-02-07T06:20:49;-0.40;80.90
10316;DHT22;5203;48.976;8.306;2023-02-07T06:23:14;-0.40;81.70
10316;DHT22;5203;48.976;8.306;2023-02-07T06:25:40;-0.40;82.30
10316;DHT22;5203;48.976;8.306;2023-02-07T06:28:06;-0.40;81.20
10316;DHT22;5203;48.976;8.306;2023-02-07T06:30:31;-0.50;81.20
10316;DHT22;5203;48.976;8.306;2023-02-07T06:32:57;-0.50;82.30
10316;DHT22;5203;48.976;8.306;2023-02-07T06:35:22;-0.60;81.80
10316;DHT22;5203;48.976;8.306;2023-02-07T06:37:48;-0.60;82.20
10316;DHT22;5203;48.976;8.306;2023-02-07T06:40:14;-0.70;82.30
10316;DHT22;5203;48.976;8.306;2023-02-07T06:42:39;-0.60;82.90
10316;DHT22;5203;48.976;8.306;2023-02-07T06:45:05;-0.70;83.40
10316;DHT22;5203;48.976;8.306;2023-02-07T06:47:31;-0.60;83.20
10316;DHT22;5203;48.976;8.306;2023-02-07T06:49:56;-0.50;83.70
10316;DHT22;5203;48.976;8.306;2023-02-07T06:52:22;-0.50;85.10
10316;DHT22;5203;48.976;8.306;2023-02-07T06:54:47;-0.60;84.50
10316;DHT22;5203;48.976;8.306;2023-02-07T06:57:13;-0.70;85.30
10316;DHT22;5203;48.976;8.306;2023-02-07T06:59:39;-0.80;87.00
10316;DHT22;5203;48.976;8.306;2023-02-07T07:02:04;-0.90;88.50
10316;DHT22;5203;48.976;8.306;2023-02-07T07:04:30;-1.00;88.50
10316;DHT22;5203;48.976;8.306;2023-02-07T07:06:56;-1.00;89.40
10316;DHT22;5203;48.976;8.306;2023-02-07T07:09:21;-1.10;90.30
10316;DHT22;5203;48.976;8.306;2023-02-07T07:11:47;-1.10;90.30
10316;DHT22;5203;48.976;8.306;2023-02-07T07:14:12;-1.00;90.50
10316;DHT22;5203;48.976;8.306;2023-02-07T07:16:38;-1.10;90.20
10316;DHT22;5203;48.976;8.306;2023-02-07T07:19:05;-1.10;90.10
10316;DHT22;5203;48.976;8.306;2023-02-07T07:21:31;-1.00;89.60
10316;DHT22;5203;48.976;8.306;2023-02-07T07:23:56;-1.10;89.40
10316;DHT22;5203;48.976;8.306;2023-02-07T07:26:22;-1.20;90.60
10316;DHT22;5203;48.976;8.306;2023-02-07T07:28:48;-1.10;90.30
10316;DHT22;5203;48.976;8.306;2023-02-07T07:31:14;-1.00;89.70
10316;DHT22;5203;48.976;8.306;2023-02-07T07:33:39;-1.00;89.60
10316;DHT22;5203;48.976;8.306;2023-02-07T07:36:05;-1.00;89.40
10316;DHT22;5203;48.976;8.306;2023-02-07T07:38:31;-1.00;88.20
10316;DHT22;5203;48.976;8.306;2023-02-07T07:40:58;-0.90;88.60
10316;DHT22;5203;48.976;8.306;2023-02-07T07:43:24;-0.90;87.30
10316;DHT22;5203;48.976;8.306;2023-02-07T07:45:52;-0.90;86.80
10316;DHT22;5203;48.976;8.306;2023-02-07T07:48:18;-0.90;86.00
10316;DHT22;5203;48.976;8.306;2023-02-07T07:50:44;-0.90;86.70
10316;DHT22;5203;48.976;8.306;2023-02-07T07:53:10;-0.90;86.30
10316;DHT22;5203;48.976;8.306;2023-02-07T07:55:35;-0.80;84.80
10316;DHT22;5203;48.976;8.306;2023-02-07T07:58:02;-0.80;85.70
10316;DHT22;5203;48.976;8.306;2023-02-07T08:00:28;-0.70;84.90
10316;DHT22;5203;48.976;8.306;2023-02-07T08:02:53;-0.70;84.40
10316;DHT22;5203;48.976;8.306;2023-02-07T08:05:19;-0.70;85.00
10316;DHT22;5203;48.976;8.306;2023-02-07T08:07:45;-0.60;85.00
10316;DHT22;5203;48.976;8.306;2023-02-07T08:10:10;-0.70;83.30
10316;DHT22;5203;48.976;8.306;2023-02-07T08:12:36;-0.60;84.20
10316;DHT22;5203;48.976;8.306;2023-02-07T08:15:02;-0.60;81.90
10316;DHT22;5203;48.976;8.306;2023-02-07T08:17:28;-0.60;82.70
10316;DHT22;5203;48.976;8.306;2023-02-07T08:19:53;-0.60;83.10
10316;DHT22;5203;48.976;8.306;2023-02-07T08:22:19;-0.60;83.20
10316;DHT22;5203;48.976;8.306;2023-02-07T08:24:45;-0.60;82.10
10316;DHT22;5203;48.976;8.306;2023-02-07T08:27:10;-0.60;82.10
10316;DHT22;5203;48.976;8.306;2023-02-07T08:29:36;-0.50;82.00
10316;DHT22;5203;48.976;8.306;2023-02-07T08:32:02;-0.50;81.90
10316;DHT22;5203;48.976;8.306;2023-02-07T08:34:27;-0.40;81.50
10316;DHT22;5203;48.976;8.306;2023-02-07T08:36:56;-0.40;81.10
10316;DHT22;5203;48.976;8.306;2023-02-07T08:39:21;-0.40;79.90
10316;DHT22;5203;48.976;8.306;2023-02-07T08:41:47;-0.30;79.80
10316;DHT22;5203;48.976;8.306;2023-02-07T08:44:13;-0.40;78.00
10316;DHT22;5203;48.976;8.306;2023-02-07T08:46:38;-0.30;79.00
10316;DHT22;5203;48.976;8.306;2023-02-07T08:49:04;-0.30;78.60
10316;DHT22;5203;48.976;8.306;2023-02-07T08:51:29;-0.30;78.40
10316;DHT22;5203;48.976;8.306;2023-02-07T08:53:55;-0.20;76.50
10316;DHT22;5203;48.976;8.306;2023-02-07T08:56:21;-0.10;77.00
10316;DHT22;5203;48.976;8.306;2023-02-07T08:58:46;-0.10;75.00
10316;DHT22;5203;48.976;8.306;2023-02-07T09:01:12;-0.10;73.70
10316;DHT22;5203;48.976;8.306;2023-02-07T09:03:37;-0.10;74.20
10316;DHT22;5203;48.976;8.306;2023-02-07T09:06:03;0.10;75.30
10316;DHT22;5203;48.976;8.306;2023-02-07T09:08:29;0.20;74.30
10316;DHT22;5203;48.976;8.306;2023-02-07T09:10:54;0.30;75.50
10316;DHT22;5203;48.976;8.306;2023-02-07T09:13:20;0.40;71.70
10316;DHT22;5203;48.976;8.306;2023-02-07T09:15:53;0.40;70.60
10316;DHT22;5203;48.976;8.306;2023-02-07T09:18:19;0.30;69.70
10316;DHT22;5203;48.976;8.306;2023-02-07T09:20:44;0.40;69.40
10316;DHT22;5203;48.976;8.306;2023-02-07T09:23:10;0.50;69.20
10316;DHT22;5203;48.976;8.306;2023-02-07T09:25:46;0.50;69.50
10316;DHT22;5203;48.976;8.306;2023-02-07T09:28:12;0.60;70.20
10316;DHT22;5203;48.976;8.306;2023-02-07T09:30:42;0.60;68.20
10316;DHT22;5203;48.976;8.306;2023-02-07T09:33:08;0.60;68.30
10316;DHT22;5203;48.976;8.306;2023-02-07T09:35:43;0.80;68.00
10316;DHT22;5203;48.976;8.306;2023-02-07T09:38:19;0.80;67.60
10316;DHT22;5203;48.976;8.306;2023-02-07T09:40:48;0.90;67.00
10316;DHT22;5203;48.976;8.306;2023-02-07T09:43:51;0.90;66.60
10316;DHT22;5203;48.976;8.306;2023-02-07T09:52:03;1.10;65.60
10316;DHT22;5203;48.976;8.306;2023-02-07T09:54:38;1.10;64.80
10316;DHT22;5203;48.976;8.306;2023-02-07T09:57:13;1.20;65.00
10316;DHT22;5203;48.976;8.306;2023-02-07T09:59:52;1.30;64.60
10316;DHT22;5203;48.976;8.306;2023-02-07T10:02:41;1.30;64.80
10316;DHT22;5203;48.976;8.306;2023-02-07T10:05:35;1.40;62.70
10316;DHT22;5203;48.976;8.306;2023-02-07T10:08:01;1.50;62.70
10316;DHT22;5203;48.976;8.306;2023-02-07T10:10:39;1.50;62.70
10316;DHT22;5203;48.976;8.306;2023-02-07T10:13:40;1.50;62.80
10316;DHT22;5203;48.976;8.306;2023-02-07T10:31:40;2.70;58.90
10316;DHT22;5203;48.976;8.306;2023-02-07T10:34:30;2.80;57.70
10316;DHT22;5203;48.976;8.306;2023-02-07T10:36:58;2.70;57.90
10316;DHT22;5203;48.976;8.306;2023-02-07T10:39:32;2.70;58.60
10316;DHT22;5203;48.976;8.306;2023-02-07T10:41:58;2.80;57.70
10316;DHT22;5203;48.976;8.306;2023-02-07T10:44:24;2.90;57.60
10316;DHT22;5203;48.976;8.306;2023-02-07T10:47:03;2.90;57.20
10316;DHT22;5203;48.976;8.306;2023-02-07T10:49:36;3.10;57.40
10316;DHT22;5203;48.976;8.306;2023-02-07T10:54:57;3.20;56.90
10316;DHT22;5203;48.976;8.306;2023-02-07T10:57:24;3.30;56.70
10316;DHT22;5203;48.976;8.306;2023-02-07T10:59:58;3.50;55.70
10316;DHT22;5203;48.976;8.306;2023-02-07T11:05:01;3.80;55.00
10316;DHT22;5203;48.976;8.306;2023-02-07T11:07:27;3.90;54.20
10316;DHT22;5203;48.976;8.306;2023-02-07T11:10:19;3.80;54.60
10316;DHT22;5203;48.976;8.306;2023-02-07T11:12:53;3.90;54.50
10316;DHT22;5203;48.976;8.306;2023-02-07T11:15:21;4.00;54.00
10316;DHT22;5203;48.976;8.306;2023-02-07T11:17:54;4.10;53.50
10316;DHT22;5203;48.976;8.306;2023-02-07T11:22:53;4.30;53.00
10316;DHT22;5203;48.976;8.306;2023-02-07T11:25:29;4.40;52.20
10316;DHT22;5203;48.976;8.306;2023-02-07T11:27:56;4.50;52.70
10316;DHT22;5203;48.976;8.306;2023-02-07T11:30:22;4.60;52.20
10316;DHT22;5203;48.976;8.306;2023-02-07T11:32:59;4.70;51.40
10316;DHT22;5203;48.976;8.306;2023-02-07T11:35:26;4.80;50.60
10316;DHT22;5203;48.976;8.306;2023-02-07T11:38:18;4.60;51.80
10316;DHT22;5203;48.976;8.306;2023-02-07T11:40:46;4.40;52.30
10316;DHT22;5203;48.976;8.306;2023-02-07T11:43:17;4.50;53.00
10316;DHT22;5203;48.976;8.306;2023-02-07T11:45:45;4.90;51.30
10316;DHT22;5203;48.976;8.306;2023-02-07T11:48:28;5.20;50.70
10316;DHT22;5203;48.976;8.306;2023-02-07T11:50:57;5.20;49.60
10316;DHT22;5203;48.976;8.306;2023-02-07T11:56:42;5.30;49.60
10316;DHT22;5203;48.976;8.306;2023-02-07T11:59:21;5.30;49.80
10316;DHT22;5203;48.976;8.306;2023-02-07T12:01:54;5.20;49.90
10316;DHT22;5203;48.976;8.306;2023-02-07T12:04:40;5.50;49.40
10316;DHT22;5203;48.976;8.306;2023-02-07T12:10:12;6.00;47.90
10316;DHT22;5203;48.976;8.306;2023-02-07T12:12:47;6.00;48.30
10316;DHT22;5203;48.976;8.306;2023-02-07T12:25:29;6.30;47.60
10316;DHT22;5203;48.976;8.306;2023-02-07T12:28:00;6.20;47.80
10316;DHT22;5203;48.976;8.306;2023-02-07T12:30:35;6.20;47.80
10316;DHT22;5203;48.976;8.306;2023-02-07T12:33:22;6.10;47.80
10316;DHT22;5203;48.976;8.306;2023-02-07T12:36:14;6.40;47.30
10316;DHT22;5203;48.976;8.306;2023-02-07T12:39:10;6.50;47.20
10316;DHT22;5203;48.976;8.306;2023-02-07T12:41:59;6.90;45.80
10316;DHT22;5203;48.976;8.306;2023-02-07T12:44:34;6.90;45.60
10316;DHT22;5203;48.976;8.306;2023-02-07T12:55:27;7.20;44.40
10316;DHT22;5203;48.976;8.306;2023-02-07T12:58:25;7.50;44.00
10316;DHT22;5203;48.976;8.306;2023-02-07T13:04:04;7.30;44.80
10316;DHT22;5203;48.976;8.306;2023-02-07T13:06:44;7.80;44.50
10316;DHT22;5203;48.976;8.306;2023-02-07T13:20:24;7.80;42.20
10316;DHT22;5203;48.976;8.306;2023-02-07T13:25:44;8.30;42.20
10316;DHT22;5203;48.976;8.306;2023-02-07T13:28:39;8.30;41.40
10316;DHT22;5203;48.976;8.306;2023-02-07T13:31:08;8.40;41.00
10316;DHT22;5203;48.976;8.306;2023-02-07T13:33:37;8.50;42.00
10316;DHT22;5203;48.976;8.306;2023-02-07T13:44:25;8.20;42.50
10316;DHT22;5203;48.976;8.306;2023-02-07T13:47:11;8.20;42.00
10316;DHT22;5203;48.976;8.306;2023-02-07T13:49:59;8.40;41.70
10316;DHT22;5203;48.976;8.306;2023-02-07T13:55:35;8.50;41.70
10316;DHT22;5203;48.976;8.306;2023-02-07T14:01:18;8.30;41.50
10316;DHT22;5203;48.976;8.306;2023-02-07T14:04:01;8.20;41.70
10316;DHT22;5203;48.976;8.306;2023-02-07T14:06:30;8.20;40.90
10316;DHT22;5203;48.976;8.306;2023-02-07T14:14:33;8.10;41.10
10316;DHT22;5203;48.976;8.306;2023-02-07T14:17:01;8.10;40.60
10316;DHT22;5203;48.976;8.306;2023-02-07T14:19:51;8.00;40.70
10316;DHT22;5203;48.976;8.306;2023-02-07T14:22:31;8.20;40.40
10316;DHT22;5203;48.976;8.306;2023-02-07T14:25:39;8.70;40.50
10316;DHT22;5203;48.976;8.306;2023-02-07T14:28:06;8.80;38.90
10316;DHT22;5203;48.976;8.306;2023-02-07T14:33:27;9.20;38.50
10316;DHT22;5203;48.976;8.306;2023-02-07T14:41:05;9.00;37.30
10316;DHT22;5203;48.976;8.306;2023-02-07T14:46:23;8.60;39.00
10316;DHT22;5203;48.976;8.306;2023-02-07T14:51:43;8.30;39.20
10316;DHT22;5203;48.976;8.306;2023-02-07T14:54:34;8.30;39.30
10316;DHT22;5203;48.976;8.306;2023-02-07T15:02:59;7.80;39.10
10316;DHT22;5203;48.976;8.306;2023-02-07T15:06:00;7.60;40.00
10316;DHT22;5203;48.976;8.306;2023-02-07T15:08:28;7.60;39.50
10316;DHT22;5203;48.976;8.306;2023-02-07T15:13:35;7.60;39.80
10316;DHT22;5203;48.976;8.306;2023-02-07T15:18:50;7.40;40.50
10316;DHT22;5203;48.976;8.306;2023-02-07T15:21:23;7.40;40.40
10316;DHT22;5203;48.976;8.306;2023-02-07T15:24:02;7.50;40.00
10316;DHT22;5203;48.976;8.306;2023-02-07T15:26:29;7.70;40.00
10316;DHT22;5203;48.976;8.306;2023-02-07T15:29:00;7.50;39.70
10316;DHT22;5203;48.976;8.306;2023-02-07T15:31:26;7.60;39.30
10316;DHT22;5203;48.976;8.306;2023-02-07T15:33:55;7.60;39.60
10316;DHT22;5203;48.976;8.306;2023-02-07T15:36:36;7.60;40.10
10316;DHT22;5203;48.976;8.306;2023-02-07T15:39:13;7.60;39.40
10316;DHT22;5203;48.976;8.306;2023-02-07T15:41:39;7.50;40.60
10316;DHT22;5203;48.976;8.306;2023-02-07T15:44:06;7.50;39.90
10316;DHT22;5203;48.976;8.306;2023-02-07T15:51:50;6.80;42.20
10316;DHT22;5203;48.976;8.306;2023-02-07T15:54:16;6.70;41.90
10316;DHT22;5203;48.976;8.306;2023-02-07T15:56:48;6.70;43.40
10316;DHT22;5203;48.976;8.306;2023-02-07T15:59:18;6.70;42.30
10316;DHT22;5203;48.976;8.306;2023-02-07T16:01:54;6.50;42.50
10316;DHT22;5203;48.976;8.306;2023-02-07T16:04:24;6.10;43.20
10316;DHT22;5203;48.976;8.306;2023-02-07T16:07:03;5.90;43.90
10316;DHT22;5203;48.976;8.306;2023-02-07T16:09:50;5.60;44.30
10316;DHT22;5203;48.976;8.306;2023-02-07T16:12:46;5.60;44.90
10316;DHT22;5203;48.976;8.306;2023-02-07T16:15:35;5.50;45.80
10316;DHT22;5203;48.976;8.306;2023-02-07T16:18:02;5.40;44.40
10316;DHT22;5203;48.976;8.306;2023-02-07T16:20:30;5.20;45.20
10316;DHT22;5203;48.976;8.306;2023-02-07T16:22:59;5.10;45.60
10316;DHT22;5203;48.976;8.306;2023-02-07T16:25:29;5.00;45.20
10316;DHT22;5203;48.976;8.306;2023-02-07T16:27:55;5.00;45.80
10316;DHT22;5203;48.976;8.306;2023-02-07T16:30:32;4.90;45.90
10316;DHT22;5203;48.976;8.306;2023-02-07T16:33:04;5.00;46.10
10316;DHT22;5203;48.976;8.306;2023-02-07T16:35:30;4.90;46.30
10316;DHT22;5203;48.976;8.306;2023-02-07T16:37:55;4.90;46.10
10316;DHT22;5203;48.976;8.306;2023-02-07T16:40:22;4.90;46.40
10316;DHT22;5203;48.976;8.306;2023-02-07T16:42:48;4.80;47.00
10316;DHT22;5203;48.976;8.306;2023-02-07T16:45:17;4.80;46.80
10316;DHT22;5203;48.976;8.306;2023-02-07T16:47:43;4.80;46.40
10316;DHT22;5203;48.976;8.306;2023-02-07T16:50:14;4.80;46.50
10316;DHT22;5203;48.976;8.306;2023-02-07T16:52:39;4.70;45.70
10316;DHT22;5203;48.976;8.306;2023-02-07T16:55:05;4.50;45.80
10316;DHT22;5203;48.976;8.306;2023-02-07T16:57:31;4.40;46.10
10316;DHT22;5203;48.976;8.306;2023-02-07T16:59:57;4.40;46.80
10316;DHT22;5203;48.976;8.306;2023-02-07T17:02:22;4.40;45.60
10316;DHT22;5203;48.976;8.306;2023-02-07T17:04:48;4.30;45.50
10316;DHT22;5203;48.976;8.306;2023-02-07T17:07:13;4.30;46.80
10316;DHT22;5203;48.976;8.306;2023-02-07T17:09:40;4.30;47.10
10316;DHT22;5203;48.976;8.306;2023-02-07T17:12:08;4.30;49.30
10316;DHT22;5203;48.976;8.306;2023-02-07T17:14:33;4.30;46.70
10316;DHT22;5203;48.976;8.306;2023-02-07T17:17:00;4.30;47.90
10316;DHT22;5203;48.976;8.306;2023-02-07T17:19:26;4.30;47.40
10316;DHT22;5203;48.976;8.306;2023-02-07T17:21:53;4.30;48.80
10316;DHT22;5203;48.976;8.306;2023-02-07T17:24:21;4.30;49.00
10316;DHT22;5203;48.976;8.306;2023-02-07T17:26:49;4.30;49.50
10316;DHT22;5203;48.976;8.306;2023-02-07T17:29:17;4.30;47.30
10316;DHT22;5203;48.976;8.306;2023-02-07T17:31:44;4.30;49.80
10316;DHT22;5203;48.976;8.306;2023-02-07T17:34:10;4.30;49.20
10316;DHT22;5203;48.976;8.306;2023-02-07T17:36:36;4.20;50.60
10316;DHT22;5203;48.976;8.306;2023-02-07T17:39:06;4.20;48.70
10316;DHT22;5203;48.976;8.306;2023-02-07T17:41:34;4.20;48.10
10316;DHT22;5203;48.976;8.306;2023-02-07T17:44:00;4.20;48.10
10316;DHT22;5203;48.976;8.306;2023-02-07T17:46:26;4.20;50.00
10316;DHT22;5203;48.976;8.306;2023-02-07T17:48:53;4.10;50.60
10316;DHT22;5203;48.976;8.306;2023-02-07T17:51:23;4.10;50.30
10316;DHT22;5203;48.976;8.306;2023-02-07T17:53:49;4.20;52.00
10316;DHT22;5203;48.976;8.306;2023-02-07T17:56:22;4.20;53.50
10316;DHT22;5203;48.976;8.306;2023-02-07T17:58:49;4.20;52.70
10316;DHT22;5203;48.976;8.306;2023-02-07T18:01:15;4.10;50.90
10316;DHT22;5203;48.976;8.306;2023-02-07T18:03:48;4.20;54.10
10316;DHT22;5203;48.976;8.306;2023-02-07T18:06:15;4.10;51.50
10316;DHT22;5203;48.976;8.306;2023-02-07T18:08:41;4.00;53.00
10316;DHT22;5203;48.976;8.306;2023-02-07T18:11:07;4.00;53.00
10316;DHT22;5203;48.976;8.306;2023-02-07T18:13:36;4.00;54.20
10316;DHT22;5203;48.976;8.306;2023-02-07T18:16:01;3.90;55.90
10316;DHT22;5203;48.976;8.306;2023-02-07T18:18:27;4.00;57.70
10316;DHT22;5203;48.976;8.306;2023-02-07T18:20:53;4.00;58.10
10316;DHT22;5203;48.976;8.306;2023-02-07T18:23:18;4.00;55.50
10316;DHT22;5203;48.976;8.306;2023-02-07T18:25:48;3.70;52.20
10316;DHT22;5203;48.976;8.306;2023-02-07T18:28:15;3.60;52.50
10316;DHT22;5203;48.976;8.306;2023-02-07T18:30:40;3.50;51.20
10316;DHT22;5203;48.976;8.306;2023-02-07T18:33:06;3.30;52.00
10316;DHT22;5203;48.976;8.306;2023-02-07T18:35:32;3.10;52.70
10316;DHT22;5203;48.976;8.306;2023-02-07T18:37:58;3.10;52.50
10316;DHT22;5203;48.976;8.306;2023-02-07T18:40:24;3.00;52.90
10316;DHT22;5203;48.976;8.306;2023-02-07T18:42:50;3.00;52.80
10316;DHT22;5203;48.976;8.306;2023-02-07T18:45:15;2.90;52.80
10316;DHT22;5203;48.976;8.306;2023-02-07T18:47:41;2.80;53.30
10316;DHT22;5203;48.976;8.306;2023-02-07T18:50:09;2.80;54.20
10316;DHT22;5203;48.976;8.306;2023-02-07T18:52:35;2.70;54.20
10316;DHT22;5203;48.976;8.306;2023-02-07T18:55:00;2.60;54.80
10316;DHT22;5203;48.976;8.306;2023-02-07T18:57:26;2.50;55.90